Terminal Aerodrome Forecast
Issued by NWS Sioux Falls, SD

Home | Current Version | Previous Version | Graphics & Text | Print | Product List | Glossary Off
Versions: 1 2 3 4 5 6 7 8 9 10 11 12 13 14 15 16 17 18 19 20 21 22 23 24 25 26 27 28 29 30 31

073
FTUS43 KFSD 190522
TAFSUX
TAF
KSUX 190522Z 1906/2006 12005KT P6SM SCT250
     FM191600 15009KT P6SM BKN250
     FM191800 16015G23KT P6SM SCT250
     FM200000 16012G18KT P6SM BKN200=

USA.gov is the U.S. government's official web portal to all federal, state and local government web resources and services.